Shorewood, Washington
Current Conditions -  °F | °C
As of 3:53 PM on Thursday 27 Nov 2014 (Local Time) from KBFI Reporting Station
Broken Clouds Broken Clouds  
Wind Chill: 60°   Ceiling: 2600
Heat Index: 60°   Visibility: 10mi
Dew Point: 49°   Wind: 17mph
Humidity: 67%   Direction: 170°S
Pressure: 29.78"   Gusts: 24mph
Location:  47.501°N, 122.358°W
Report Text: KBFI 272353Z 17015G21KT 10SM BKN026 16/09 A2978 RMK AO2 SLP083 T01560094 10156 20144 56010
Loading
Personal Weather Stations






























Interactive Weather Map New forecast layout! Learn more

10-Day Weather Forecast

Advertisements
Track Severe Weather on mobile